Salem, Ohio
Current Conditions -  °F | °C
As of 4:47 PM on Wednesday 26 Nov 2014 (Local Time) from KBVI Reporting Station
Haze Haze  
Wind Chill: 32°   Ceiling: 500
Heat Index: 32°   Visibility: 5mi
Dew Point: 32°   Wind: 0mph
Humidity: 100%   Direction: NA
Pressure: 30"   Gusts: NA
Location:  40.9°N, 80.85°W
Report Text: KBVI 262147Z 00000KT 5SM BR OVC005 00/00 A3000
Loading
Personal Weather Stations






























Interactive Weather Map New forecast layout! Learn more

10-Day Weather Forecast

Advertisements
Track Severe Weather on mobile